Time;durP1;ratioP1;P1;durP2;ratioP2;P2;SDS_P1;SDS_P2;PMS_P1;PMS_P2;Temp;Humidity;BMP_temperature;BMP_pressure;BME280_temperature;BME280_humidity;BME280_pressure;Samples;Min_cycle;Max_cycle;Signal;HPM_P1;HPM_P2
2022/09/17 00:01:53;;;;;;;0.30;0.30;;;9.10;99.90;;;;;;5013259;28;20538;-69
2022/09/17 00:04:19;;;;;;;0.30;0.30;;;9.00;99.90;;;;;;5013448;28;20167;-70
2022/09/17 00:06:45;;;;;;;0.30;0.30;;;9.00;99.90;;;;;;5013449;28;20167;-70
2022/09/17 00:09:10;;;;;;;0.30;0.30;;;8.80;99.90;;;;;;5013491;28;20215;-70
2022/09/17 00:11:39;;;;;;;0.40;0.40;;;8.80;99.90;;;;;;5013315;28;20175;-69
2022/09/17 00:14:07;;;;;;;0.40;0.40;;;8.70;99.90;;;;;;5013584;28;20262;-70
2022/09/17 00:16:40;;;;;;;0.30;0.30;;;9.10;99.90;;;;;;5014162;28;20587;-69
2022/09/17 00:19:08;;;;;;;0.60;0.60;;;8.90;99.90;;;;;;5016916;28;20202;-70
2022/09/17 00:21:35;;;;;;;0.30;0.30;;;8.90;99.90;;;;;;5016686;28;20164;-70
2022/09/17 00:24:05;;;;;;;0.40;0.40;;;9.10;99.90;;;;;;5017065;28;20179;-70
2022/09/17 00:26:31;;;;;;;2.25;1.60;;;9.00;99.90;;;;;;5016940;28;20274;-70
2022/09/17 00:28:58;;;;;;;0.50;0.50;;;9.00;99.90;;;;;;5016626;28;20198;-69
2022/09/17 00:31:24;;;;;;;0.30;0.30;;;9.00;99.90;;;;;;5016657;28;20234;-69
2022/09/17 00:33:51;;;;;;;0.50;0.50;;;8.80;99.90;;;;;;5016745;28;20179;-68
2022/09/17 00:36:17;;;;;;;0.52;0.52;;;8.90;99.90;;;;;;5016628;28;20695;-70
2022/09/17 00:38:43;;;;;;;0.50;0.50;;;8.60;99.90;;;;;;5016614;28;20214;-69
2022/09/17 00:41:08;;;;;;;0.30;0.30;;;8.90;99.90;;;;;;5016297;28;20210;-69
2022/09/17 00:43:47;;;;;;;0.30;0.30;;;8.60;99.90;;;;;;5016498;28;20405;-71
2022/09/17 00:46:24;;;;;;;0.30;0.30;;;8.60;99.90;;;;;;5016373;28;20420;-70
2022/09/17 00:48:52;;;;;;;0.30;0.30;;;8.80;99.90;;;;;;5016443;28;20197;-70
2022/09/17 00:51:24;;;;;;;0.30;0.30;;;9.00;99.90;;;;;;5016119;28;20269;-69
2022/09/17 00:53:49;;;;;;;1.77;1.02;;;8.80;99.90;;;;;;5016299;28;20178;-70
2022/09/17 00:56:22;;;;;;;0.30;0.30;;;8.70;99.90;;;;;;5016226;28;20277;-69
2022/09/17 00:58:50;;;;;;;0.45;0.45;;;8.30;99.90;;;;;;5016244;28;20194;-69
2022/09/17 01:01:16;;;;;;;0.30;0.30;;;8.50;99.90;;;;;;5016158;28;20171;-70
2022/09/17 01:03:42;;;;;;;0.40;0.40;;;8.50;99.90;;;;;;5016306;28;20251;-69
2022/09/17 01:06:36;;;;;;;0.40;0.40;;;8.40;99.90;;;;;;5016227;28;20262;-70
2022/09/17 01:09:12;;;;;;;0.30;0.30;;;8.50;99.90;;;;;;5016230;28;20195;-69
2022/09/17 01:11:57;;;;;;;0.38;0.38;;;8.40;99.90;;;;;;5016027;28;20167;-70
2022/09/17 01:14:35;;;;;;;0.40;0.40;;;8.40;99.90;;;;;;5015796;28;20187;-70
2022/09/17 01:17:27;;;;;;;1.05;0.95;;;8.40;99.90;;;;;;5015949;28;20652;-69
2022/09/17 01:19:56;;;;;;;0.30;0.30;;;8.60;99.90;;;;;;5015800;28;20191;-69
2022/09/17 01:22:57;;;;;;;0.30;0.30;;;8.70;99.90;;;;;;5015707;28;20171;-68
2022/09/17 01:25:31;;;;;;;0.30;0.30;;;8.80;99.90;;;;;;5015763;28;20175;-68
2022/09/17 01:28:22;;;;;;;0.30;0.30;;;8.70;99.90;;;;;;5015611;28;20172;-70
2022/09/17 01:31:00;;;;;;;0.30;0.30;;;8.80;99.90;;;;;;5015507;28;20155;-69
2022/09/17 01:33:31;;;;;;;0.30;0.30;;;8.90;99.90;;;;;;5015806;28;20253;-69
2022/09/17 01:36:28;;;;;;;0.88;0.88;;;8.90;99.90;;;;;;5015641;28;20207;-70
2022/09/17 01:39:21;;;;;;;0.30;0.30;;;8.90;99.90;;;;;;5015656;28;20587;-70
2022/09/17 01:41:51;;;;;;;0.60;0.50;;;9.00;99.90;;;;;;5004536;28;20193;-70
2022/09/17 01:44:25;;;;;;;0.40;0.40;;;8.90;99.90;;;;;;5015366;28;20171;-68
2022/09/17 01:47:16;;;;;;;0.30;0.30;;;8.70;99.90;;;;;;5015540;28;20167;-68
2022/09/17 01:49:43;;;;;;;2.05;0.98;;;8.70;99.90;;;;;;5015191;28;20203;-70
2022/09/17 01:52:11;;;;;;;0.30;0.30;;;8.90;99.90;;;;;;5015199;28;20304;-68
2022/09/17 01:54:48;;;;;;;0.30;0.30;;;9.00;99.90;;;;;;5015287;28;20199;-70
2022/09/17 01:57:18;;;;;;;0.30;0.30;;;8.80;99.90;;;;;;5015362;28;20163;-69
2022/09/17 01:59:58;;;;;;;0.40;0.40;;;8.70;99.90;;;;;;5015064;28;20267;-71
2022/09/17 02:02:49;;;;;;;0.30;0.30;;;8.90;99.90;;;;;;5014951;28;20222;-69
2022/09/17 02:05:47;;;;;;;0.30;0.30;;;9.00;99.90;;;;;;5015185;28;20184;-71
2022/09/17 02:08:25;;;;;;;0.47;0.47;;;8.70;99.90;;;;;;5009145;28;20188;-68
2022/09/17 02:10:57;;;;;;;0.30;0.30;;;8.80;99.90;;;;;;5014728;28;20207;-68
2022/09/17 02:13:42;;;;;;;0.30;0.30;;;8.90;99.90;;;;;;5015224;28;20175;-70
2022/09/17 02:16:41;;;;;;;0.30;0.30;;;9.10;99.90;;;;;;5014605;28;20214;-71
2022/09/17 02:19:14;;;;;;;0.45;0.45;;;9.30;99.90;;;;;;4999728;28;20639;-70
2022/09/17 02:22:21;;;;;;;0.55;0.55;;;8.90;99.90;;;;;;5014342;28;20226;-70
2022/09/17 02:25:01;;;;;;;0.30;0.30;;;9.00;99.90;;;;;;4934998;29;20596;-69
2022/09/17 02:27:59;;;;;;;0.38;0.38;;;9.00;99.90;;;;;;4935218;29;20564;-70
2022/09/17 02:30:24;;;;;;;0.40;0.40;;;8.90;99.90;;;;;;4987062;28;20190;-69
2022/09/17 02:32:50;;;;;;;0.30;0.30;;;8.90;99.90;;;;;;5014587;28;20257;-69
2022/09/17 02:35:16;;;;;;;0.30;0.30;;;8.60;99.90;;;;;;5014470;28;20222;-69
2022/09/17 02:37:42;;;;;;;0.50;0.43;;;9.00;99.90;;;;;;5014593;28;20704;-70
2022/09/17 02:40:14;;;;;;;0.50;0.50;;;8.80;99.90;;;;;;5013736;28;20607;-70
2022/09/17 02:43:05;;;;;;;0.32;0.32;;;8.80;99.90;;;;;;5014725;28;20191;-70
2022/09/17 02:45:57;;;;;;;0.30;0.30;;;8.90;99.90;;;;;;5014506;28;20167;-70
2022/09/17 02:48:54;;;;;;;0.40;0.40;;;8.90;99.90;;;;;;5014167;28;20230;-69
2022/09/17 02:51:27;;;;;;;0.50;0.50;;;8.90;99.90;;;;;;5014222;28;20179;-70
2022/09/17 02:54:27;;;;;;;0.40;0.40;;;8.90;99.90;;;;;;5014377;28;20179;-68
2022/09/17 02:57:16;;;;;;;0.30;0.30;;;8.90;99.90;;;;;;5014325;28;20179;-70
2022/09/17 02:59:48;;;;;;;0.30;0.30;;;9.00;99.90;;;;;;5013997;28;20237;-69
2022/09/17 03:02:33;;;;;;;0.50;0.50;;;8.70;99.90;;;;;;5014251;28;20167;-69
2022/09/17 03:05:00;;;;;;;0.30;0.30;;;8.80;99.90;;;;;;5014191;28;20199;-68
2022/09/17 03:07:27;;;;;;;0.30;0.30;;;9.00;99.90;;;;;;5014107;28;20214;-69
2022/09/17 03:09:53;;;;;;;0.40;0.40;;;9.40;99.90;;;;;;5013791;28;20222;-70
2022/09/17 03:12:19;;;;;;;0.80;0.70;;;9.20;99.90;;;;;;5013974;28;20175;-70
2022/09/17 03:14:44;;;;;;;0.40;0.40;;;9.10;99.90;;;;;;5013656;28;20213;-69
2022/09/17 03:17:11;;;;;;;0.30;0.30;;;9.00;99.90;;;;;;5013703;28;20186;-68
2022/09/17 03:19:36;;;;;;;0.30;0.30;;;9.00;99.90;;;;;;5013438;28;20200;-70
2022/09/17 03:22:02;;;;;;;0.30;0.30;;;9.20;99.90;;;;;;5013810;28;20225;-69
2022/09/17 03:24:27;;;;;;;0.40;0.40;;;9.20;99.90;;;;;;5013750;28;20167;-69
2022/09/17 03:26:54;;;;;;;0.30;0.30;;;;;;;;;;5013789;28;20166;-68
2022/09/17 03:29:19;;;;;;;1.45;0.85;;;9.20;99.90;;;;;;5013545;28;20607;-69
2022/09/17 03:31:45;;;;;;;0.40;0.40;;;9.10;99.90;;;;;;5013703;28;20176;-70
2022/09/17 03:34:11;;;;;;;0.40;0.40;;;9.10;99.90;;;;;;5013624;28;20167;-69
2022/09/17 03:36:37;;;;;;;0.30;0.30;;;;;;;;;;5013543;28;20488;-70
2022/09/17 03:39:03;;;;;;;0.40;0.40;;;9.10;99.90;;;;;;5013606;28;20278;-69
2022/09/17 03:41:28;;;;;;;0.50;0.50;;;9.00;99.90;;;;;;5013625;28;20206;-69
2022/09/17 03:43:54;;;;;;;0.57;0.57;;;;;;;;;;5013789;28;20769;-68
2022/09/17 03:46:20;;;;;;;0.70;0.70;;;9.00;99.90;;;;;;5013614;28;20175;-68
2022/09/17 03:48:46;;;;;;;0.30;0.30;;;;;;;;;;5013428;28;20622;-69
2022/09/17 03:51:12;;;;;;;0.30;0.30;;;9.10;99.90;;;;;;5013734;28;20178;-69
2022/09/17 03:53:38;;;;;;;0.50;0.50;;;9.10;99.90;;;;;;5017522;28;20423;-70
2022/09/17 03:56:05;;;;;;;0.30;0.30;;;9.10;99.90;;;;;;5017424;28;20462;-69
2022/09/17 03:58:32;;;;;;;0.30;0.30;;;9.10;99.90;;;;;;5017361;28;20461;-69
2022/09/17 04:00:57;;;;;;;0.40;0.40;;;9.10;99.90;;;;;;5017088;28;20189;-69
2022/09/17 04:03:24;;;;;;;0.30;0.30;;;8.90;99.90;;;;;;5017491;28;20180;-70
2022/09/17 04:05:50;;;;;;;0.40;0.40;;;9.00;99.90;;;;;;5015950;28;20547;-69
2022/09/17 04:08:16;;;;;;;0.30;0.30;;;9.00;99.90;;;;;;5017084;28;20189;-70
2022/09/17 04:10:43;;;;;;;0.30;0.30;;;9.00;99.90;;;;;;5016919;28;20174;-70
2022/09/17 04:13:09;;;;;;;0.32;0.32;;;8.90;99.90;;;;;;5017023;28;20176;-69
2022/09/17 04:15:35;;;;;;;0.40;0.40;;;8.80;99.90;;;;;;5016759;28;20309;-70
2022/09/17 04:18:01;;;;;;;0.40;0.40;;;;;;;;;;5016842;28;20205;-70
2022/09/17 04:20:27;;;;;;;0.40;0.40;;;9.00;99.90;;;;;;5017043;28;20196;-69
2022/09/17 04:22:52;;;;;;;0.30;0.30;;;9.00;99.90;;;;;;5016970;28;20409;-69
2022/09/17 04:25:18;;;;;;;0.30;0.30;;;9.00;99.90;;;;;;5017076;28;20413;-69
2022/09/17 04:27:46;;;;;;;0.30;0.30;;;8.80;99.90;;;;;;5017008;28;20440;-70
2022/09/17 04:30:13;;;;;;;0.30;0.30;;;9.00;99.90;;;;;;5016605;28;20440;-69
2022/09/17 04:32:39;;;;;;;0.30;0.30;;;9.00;99.90;;;;;;5016669;28;20209;-69
2022/09/17 04:35:05;;;;;;;0.63;0.63;;;9.10;99.90;;;;;;5016807;28;20260;-70
2022/09/17 04:37:31;;;;;;;0.40;0.40;;;9.10;99.90;;;;;;5016701;28;20258;-69
2022/09/17 04:39:57;;;;;;;0.40;0.40;;;9.40;99.90;;;;;;5016333;28;20444;-70
2022/09/17 04:42:22;;;;;;;0.30;0.30;;;9.50;99.90;;;;;;5016709;28;20524;-69
2022/09/17 04:44:48;;;;;;;0.30;0.30;;;9.70;99.90;;;;;;5016650;28;20258;-70
2022/09/17 04:47:13;;;;;;;0.50;0.50;;;8.90;99.90;;;;;;5016687;28;20579;-68
2022/09/17 04:49:39;;;;;;;0.63;0.63;;;9.00;99.90;;;;;;5016182;28;20191;-69
2022/09/17 04:52:05;;;;;;;0.30;0.30;;;9.00;99.90;;;;;;5015200;28;20178;-69
2022/09/17 04:54:31;;;;;;;0.40;0.40;;;9.00;99.90;;;;;;5016556;28;20233;-70
2022/09/17 04:56:57;;;;;;;0.67;0.67;;;9.00;99.90;;;;;;5016302;28;20175;-70
2022/09/17 04:59:23;;;;;;;0.30;0.30;;;;;;;;;;5016069;28;20706;-70
2022/09/17 05:01:49;;;;;;;0.30;0.30;;;9.10;99.90;;;;;;5015469;28;20187;-70
2022/09/17 05:04:15;;;;;;;0.37;0.37;;;;;;;;;;5015791;28;20172;-70
2022/09/17 05:06:40;;;;;;;0.30;0.30;;;9.00;99.90;;;;;;5015982;28;20183;-70
2022/09/17 05:09:07;;;;;;;0.30;0.30;;;9.10;99.90;;;;;;5016080;28;20203;-68
2022/09/17 05:11:32;;;;;;;0.30;0.30;;;9.30;99.90;;;;;;5015959;28;20700;-70
2022/09/17 05:13:58;;;;;;;0.30;0.30;;;9.20;99.90;;;;;;5015811;28;20278;-70
2022/09/17 05:16:23;;;;;;;0.30;0.30;;;9.40;99.90;;;;;;5015842;28;20306;-69
2022/09/17 05:18:50;;;;;;;3.13;2.93;;;9.40;99.90;;;;;;5015813;28;20282;-70
2022/09/17 05:21:16;;;;;;;0.30;0.30;;;9.20;99.90;;;;;;5015776;28;20186;-70
2022/09/17 05:23:42;;;;;;;0.30;0.30;;;9.10;99.90;;;;;;5015875;28;20172;-69
2022/09/17 05:26:08;;;;;;;0.40;0.40;;;;;;;;;;5015955;28;20183;-70
2022/09/17 05:28:35;;;;;;;0.40;0.40;;;9.10;99.90;;;;;;5015605;28;20258;-69
2022/09/17 05:31:02;;;;;;;0.50;0.50;;;9.00;99.90;;;;;;5014362;28;20187;-70
2022/09/17 05:33:27;;;;;;;0.50;0.50;;;9.00;99.90;;;;;;5015666;28;20194;-69
2022/09/17 05:35:53;;;;;;;0.30;0.30;;;;;;;;;;5015578;28;20656;-69
2022/09/17 05:38:19;;;;;;;0.30;0.30;;;9.10;99.90;;;;;;5015543;28;20180;-68
2022/09/17 05:40:45;;;;;;;0.40;0.40;;;;;;;;;;5015359;28;20175;-70
2022/09/17 05:43:11;;;;;;;0.93;0.93;;;9.00;99.90;;;;;;5015508;28;20620;-69
2022/09/17 05:45:37;;;;;;;0.67;0.67;;;;;;;;;;5015787;28;20176;-68
2022/09/17 05:48:06;;;;;;;0.40;0.40;;;9.50;99.90;;;;;;5015423;28;20482;-70
2022/09/17 05:50:32;;;;;;;0.40;0.40;;;9.20;99.90;;;;;;5015247;28;20562;-70
2022/09/17 05:53:04;;;;;;;0.30;0.30;;;9.30;99.90;;;;;;5015379;28;20237;-69
2022/09/17 05:55:30;;;;;;;0.30;0.30;;;9.20;99.90;;;;;;5015247;28;20280;-70
2022/09/17 05:57:56;;;;;;;0.98;0.98;;;;;;;;;;5013479;28;20267;-69
2022/09/17 06:00:22;;;;;;;0.30;0.30;;;9.20;99.90;;;;;;5013891;28;20215;-68
2022/09/17 06:02:54;;;;;;;0.30;0.30;;;9.30;99.90;;;;;;5015002;28;20656;-69
2022/09/17 06:05:20;;;;;;;1.35;1.30;;;9.30;99.90;;;;;;5015356;28;20167;-69
2022/09/17 06:07:46;;;;;;;0.73;0.73;;;9.30;99.90;;;;;;5015121;28;20179;-70
2022/09/17 06:10:11;;;;;;;1.50;0.80;;;9.50;99.90;;;;;;5014860;28;20691;-70
2022/09/17 06:12:37;;;;;;;1.90;1.50;;;;;;;;;;5015203;28;20198;-70
2022/09/17 06:15:03;;;;;;;0.70;0.70;;;9.60;99.90;;;;;;5013956;28;20395;-68
2022/09/17 06:17:33;;;;;;;8.63;1.47;;;9.70;99.90;;;;;;5015154;28;20405;-68
2022/09/17 06:19:59;;;;;;;2.45;0.65;;;9.70;99.90;;;;;;5015031;28;20795;-70
2022/09/17 06:22:25;;;;;;;0.30;0.30;;;;;;;;;;5015360;28;20179;-69
2022/09/17 06:24:51;;;;;;;1.08;0.77;;;10.50;99.90;;;;;;5015311;28;20175;-70
2022/09/17 06:27:16;;;;;;;0.50;0.50;;;;;;;;;;5014770;28;20175;-71
2022/09/17 06:29:42;;;;;;;0.63;0.63;;;9.80;99.90;;;;;;5014609;28;20653;-67
2022/09/17 06:32:11;;;;;;;0.40;0.40;;;10.10;99.90;;;;;;5014906;28;20402;-68
2022/09/17 06:34:38;;;;;;;0.60;0.60;;;10.80;99.90;;;;;;5015001;28;20653;-70
2022/09/17 06:37:04;;;;;;;0.80;0.80;;;11.60;99.90;;;;;;5015082;28;20527;-70
2022/09/17 06:39:30;;;;;;;0.50;0.50;;;;;;;;;;5014400;28;20184;-70
2022/09/17 06:41:56;;;;;;;0.77;0.70;;;11.80;98.30;;;;;;5014344;28;20335;-70
2022/09/17 06:44:22;;;;;;;1.00;0.87;;;11.60;98.50;;;;;;5014529;28;20403;-71
2022/09/17 06:46:50;;;;;;;0.47;0.47;;;11.10;99.90;;;;;;5014705;28;20172;-69
2022/09/17 06:49:17;;;;;;;0.40;0.40;;;11.10;98.70;;;;;;5014247;28;20199;-71
2022/09/17 06:51:43;;;;;;;0.40;0.40;;;10.60;99.90;;;;;;5014703;28;20175;-70
2022/09/17 06:54:09;;;;;;;0.40;0.40;;;11.20;99.90;;;;;;5014152;28;20172;-71
2022/09/17 06:56:35;;;;;;;0.50;0.40;;;10.70;99.20;;;;;;5014283;28;20215;-69
2022/09/17 06:59:01;;;;;;;0.50;0.50;;;;;;;;;;5014339;28;20423;-69
2022/09/17 07:01:27;;;;;;;0.40;0.40;;;10.50;99.30;;;;;;5014320;28;20874;-69
2022/09/17 07:03:53;;;;;;;0.70;0.70;;;10.50;99.90;;;;;;5014461;28;20251;-69
2022/09/17 07:06:19;;;;;;;0.30;0.30;;;10.60;99.90;;;;;;5014002;28;20659;-71
2022/09/17 07:08:45;;;;;;;0.30;0.30;;;;;;;;;;5014044;28;20204;-70
2022/09/17 07:11:12;;;;;;;0.77;0.50;;;10.30;99.20;;;;;;5013960;28;20182;-69
2022/09/17 07:13:38;;;;;;;0.40;0.40;;;10.70;99.90;;;;;;5014075;28;20563;-69
2022/09/17 07:16:05;;;;;;;0.30;0.30;;;10.60;99.90;;;;;;5014212;28;20204;-69
2022/09/17 07:18:31;;;;;;;0.40;0.40;;;10.60;99.90;;;;;;5014375;28;20183;-69
2022/09/17 07:21:01;;;;;;;0.47;0.40;;;10.40;99.90;;;;;;5013909;28;20183;-72
2022/09/17 07:23:29;;;;;;;0.30;0.30;;;10.80;99.90;;;;;;5013899;28;20218;-70
2022/09/17 07:25:57;;;;;;;0.30;0.30;;;10.70;99.90;;;;;;5013964;28;20237;-71
2022/09/17 07:28:23;;;;;;;1.30;1.20;;;10.80;99.90;;;;;;5013907;28;20199;-70
2022/09/17 07:30:50;;;;;;;0.40;0.40;;;11.00;99.90;;;;;;5013453;28;20656;-70
2022/09/17 07:33:21;;;;;;;0.30;0.30;;;11.00;99.90;;;;;;5010783;28;20179;-69
2022/09/17 07:35:58;;;;;;;0.40;0.40;;;11.30;99.40;;;;;;5012080;28;20694;-69
2022/09/17 07:38:25;;;;;;;0.80;0.80;;;;;;;;;;5012159;28;20195;-69
2022/09/17 07:41:15;;;;;;;0.30;0.30;;;11.70;99.90;;;;;;5013790;28;20811;-71
2022/09/17 07:43:41;;;;;;;0.67;0.67;;;;;;;;;;5013786;28;20410;-70
2022/09/17 07:46:12;;;;;;;0.30;0.30;;;12.20;99.90;;;;;;5013629;28;20417;-69
2022/09/17 07:48:38;;;;;;;0.30;0.30;;;12.40;99.90;;;;;;5013344;28;20441;-69
2022/09/17 07:51:03;;;;;;;0.40;0.40;;;12.20;99.90;;;;;;5013236;28;20499;-69
2022/09/17 07:53:29;;;;;;;0.50;0.50;;;;;;;;;;5013742;28;20172;-70
2022/09/17 07:55:57;;;;;;;0.63;0.50;;;12.30;99.90;;;;;;5013560;28;20206;-70
2022/09/17 07:58:31;;;;;;;0.30;0.30;;;12.80;99.90;;;;;;5013598;28;20437;-70
2022/09/17 08:01:01;;;;;;;0.73;0.50;;;13.00;99.90;;;;;;5013328;28;20401;-68
2022/09/17 08:03:26;;;;;;;1.13;1.13;;;13.20;96.70;;;;;;5013440;28;20486;-70
2022/09/17 08:05:53;;;;;;;1.17;0.87;;;;;;;;;;5013588;28;20492;-69
2022/09/17 08:08:19;;;;;;;9.93;0.93;;;12.70;99.90;;;;;;5013459;28;20175;-70
2022/09/17 08:10:45;;;;;;;0.53;0.53;;;12.80;99.90;;;;;;5013196;28;20463;-70
2022/09/17 08:13:11;;;;;;;0.40;0.40;;;;;;;;;;5013415;28;20421;-70
2022/09/17 08:15:36;;;;;;;0.40;0.40;;;12.20;99.90;;;;;;5013103;28;20215;-70
2022/09/17 08:18:02;;;;;;;1.17;1.17;;;;;;;;;;5013110;28;20415;-69
2022/09/17 08:20:28;;;;;;;0.40;0.40;;;;;;;;;;5013048;28;20629;-69
2022/09/17 08:22:58;;;;;;;0.40;0.40;;;12.10;99.90;;;;;;5013325;28;20405;-70
2022/09/17 08:25:24;;;;;;;0.47;0.47;;;12.30;99.90;;;;;;5013367;28;20773;-70
2022/09/17 08:27:54;;;;;;;0.30;0.30;;;12.10;97.60;;;;;;5013112;28;20414;-69
2022/09/17 08:30:20;;;;;;;0.40;0.40;;;;;;;;;;5012945;28;20206;-70
2022/09/17 08:32:46;;;;;;;0.50;0.50;;;;;;;;;;5013038;28;20411;-68
2022/09/17 08:35:12;;;;;;;0.40;0.40;;;12.00;99.90;;;;;;5013273;28;20451;-68
2022/09/17 08:37:38;;;;;;;0.30;0.30;;;;;;;;;;5014255;28;20412;-70
2022/09/17 08:40:04;;;;;;;0.40;0.40;;;11.90;99.90;;;;;;5016311;28;20429;-70
2022/09/17 08:42:39;;;;;;;0.30;0.30;;;11.80;98.90;;;;;;5017035;28;20433;-68
2022/09/17 08:45:13;;;;;;;0.50;0.50;;;12.00;99.90;;;;;;5016600;28;20402;-69
2022/09/17 08:47:42;;;;;;;0.30;0.30;;;12.00;99.90;;;;;;5015339;28;20423;-69
2022/09/17 08:50:37;;;;;;;0.30;0.30;;;11.80;99.90;;;;;;5016202;28;20426;-69
2022/09/17 08:53:29;;;;;;;2.43;0.87;;;12.00;96.70;;;;;;5015174;28;20915;-71
2022/09/17 08:56:05;;;;;;;0.60;0.60;;;11.70;99.90;;;;;;5016363;28;20459;-70
2022/09/17 08:58:48;;;;;;;0.40;0.40;;;11.90;99.90;;;;;;5016308;28;20233;-70
2022/09/17 09:01:29;;;;;;;0.37;0.37;;;12.20;99.90;;;;;;5016134;28;20750;-69
2022/09/17 09:04:19;;;;;;;0.30;0.30;;;12.50;95.20;;;;;;5016407;28;20394;-70
2022/09/17 09:06:50;;;;;;;0.43;0.43;;;12.80;95.20;;;;;;5016339;28;20398;-70
2022/09/17 09:09:23;;;;;;;0.60;0.60;;;13.20;96.40;;;;;;5016075;28;20953;-68
2022/09/17 09:12:00;;;;;;;0.37;0.37;;;13.60;95.20;;;;;;5015905;28;20402;-68
2022/09/17 09:14:45;;;;;;;0.30;0.30;;;14.00;95.20;;;;;;5015959;28;20430;-69
2022/09/17 09:17:11;;;;;;;0.40;0.40;;;14.00;94.30;;;;;;5016197;28;20415;-69
2022/09/17 09:19:45;;;;;;;0.40;0.40;;;13.90;93.00;;;;;;5015588;28;20434;-69
2022/09/17 09:22:32;;;;;;;0.30;0.30;;;13.60;92.70;;;;;;5016492;28;20171;-69
2022/09/17 09:25:25;;;;;;;0.30;0.30;;;13.90;94.80;;;;;;5016004;28;20414;-70
2022/09/17 09:28:13;;;;;;;0.70;0.70;;;14.50;94.00;;;;;;5016038;28;20404;-69
2022/09/17 09:30:51;;;;;;;0.40;0.40;;;14.60;91.00;;;;;;5015715;28;20399;-70
2022/09/17 09:33:21;;;;;;;0.30;0.30;;;14.40;92.90;;;;;;5015742;28;20413;-70
2022/09/17 09:35:47;;;;;;;0.30;0.30;;;14.10;91.80;;;;;;5015756;28;20437;-68
2022/09/17 09:38:27;;;;;;;0.40;0.40;;;13.30;99.90;;;;;;5015675;28;20411;-70
2022/09/17 09:41:09;;;;;;;3.30;0.70;;;13.50;93.30;;;;;;5015431;28;20167;-69
2022/09/17 09:43:45;;;;;;;0.40;0.40;;;13.10;93.30;;;;;;5015618;28;20482;-69
2022/09/17 09:46:39;;;;;;;0.40;0.40;;;13.00;94.60;;;;;;5015653;28;20395;-69
2022/09/17 09:49:15;;;;;;;0.40;0.40;;;12.90;95.60;;;;;;5015139;28;20965;-68
2022/09/17 09:52:15;;;;;;;0.30;0.30;;;12.80;95.70;;;;;;5015206;28;20402;-70
2022/09/17 09:55:08;;;;;;;0.30;0.30;;;12.80;95.90;;;;;;4984948;28;20451;-68
2022/09/17 09:57:46;;;;;;;0.30;0.30;;;13.10;96.00;;;;;;5015409;28;20399;-70
2022/09/17 10:00:25;;;;;;;0.40;0.40;;;13.30;94.70;;;;;;5014887;28;20426;-68
2022/09/17 10:02:56;;;;;;;0.70;0.70;;;13.50;95.10;;;;;;5015192;28;20403;-68
2022/09/17 10:05:22;;;;;;;0.30;0.30;;;13.70;95.30;;;;;;5015265;28;20403;-69
2022/09/17 10:07:47;;;;;;;0.70;0.70;;;14.20;95.10;;;;;;5014931;28;20411;-68
2022/09/17 10:10:13;;;;;;;0.53;0.50;;;14.70;94.70;;;;;;5014756;28;21036;-69
2022/09/17 10:12:39;;;;;;;0.30;0.30;;;15.00;93.70;;;;;;5014944;28;20651;-70
2022/09/17 10:15:27;;;;;;;0.63;0.63;;;15.10;92.70;;;;;;5013522;28;20218;-69
2022/09/17 10:18:16;;;;;;;0.53;0.50;;;14.50;91.20;;;;;;5012676;28;20404;-69
2022/09/17 10:20:53;;;;;;;0.50;0.50;;;14.20;92.90;;;;;;5014626;28;20404;-69
2022/09/17 10:23:21;;;;;;;0.50;0.50;;;15.10;93.50;;;;;;5015215;28;20394;-70
2022/09/17 10:25:47;;;;;;;0.60;0.60;;;15.70;93.00;;;;;;5015035;28;20808;-70
2022/09/17 10:28:34;;;;;;;4.57;0.50;;;15.20;99.90;;;;;;5014963;28;20401;-70
2022/09/17 10:31:04;;;;;;;0.40;0.40;;;15.20;92.10;;;;;;5014579;28;20403;-70
2022/09/17 10:33:31;;;;;;;0.30;0.30;;;14.70;91.80;;;;;;5014917;28;20500;-70
2022/09/17 10:36:05;;;;;;;0.40;0.40;;;14.40;92.60;;;;;;5014826;28;20562;-70
2022/09/17 10:38:42;;;;;;;0.40;0.40;;;14.10;92.00;;;;;;5015060;28;20520;-70
2022/09/17 10:41:20;;;;;;;0.30;0.30;;;13.70;92.90;;;;;;5014422;28;20489;-71
2022/09/17 10:43:47;;;;;;;0.40;0.40;;;13.40;94.10;;;;;;5014813;28;20776;-69
2022/09/17 10:46:28;;;;;;;0.30;0.30;;;13.40;95.30;;;;;;5014679;28;20398;-70
2022/09/17 10:49:04;;;;;;;0.50;0.50;;;13.30;94.50;;;;;;5014354;28;20802;-70
2022/09/17 10:51:30;;;;;;;0.30;0.30;;;13.10;94.70;;;;;;5014207;28;20400;-70
2022/09/17 10:54:01;;;;;;;0.50;0.50;;;13.10;95.80;;;;;;5014339;28;20406;-71
2022/09/17 10:56:35;;;;;;;0.40;0.40;;;13.50;97.00;;;;;;5014425;28;20659;-69
2022/09/17 10:59:20;;;;;;;0.53;0.53;;;13.90;97.50;;;;;;5014702;28;20428;-70
2022/09/17 11:02:05;;;;;;;0.60;0.60;;;14.30;95.10;;;;;;5014138;28;20428;-69
2022/09/17 11:04:59;;;;;;;0.40;0.40;;;14.40;94.90;;;;;;5014434;28;20394;-70
2022/09/17 11:07:46;;;;;;;1.33;0.87;;;14.20;92.90;;;;;;5011912;28;20430;-69
2022/09/17 11:10:28;;;;;;;0.40;0.40;;;13.90;93.50;;;;;;5013360;28;20418;-69
2022/09/17 11:12:54;;;;;;;0.30;0.30;;;13.60;94.40;;;;;;5013910;28;20413;-70
2022/09/17 11:15:52;;;;;;;0.30;0.30;;;13.30;99.90;;;;;;5013689;28;20908;-69
2022/09/17 11:18:36;;;;;;;0.60;0.60;;;12.80;99.90;;;;;;5014047;28;20199;-68
2022/09/17 11:21:17;;;;;;;0.40;0.40;;;12.80;94.60;;;;;;5013696;28;20393;-70
2022/09/17 11:24:20;;;;;;;0.40;0.40;;;12.60;95.70;;;;;;5013919;28;20484;-70
2022/09/17 11:26:53;;;;;;;0.30;0.30;;;12.80;95.90;;;;;;4970171;28;20431;-70
2022/09/17 11:29:28;;;;;;;0.40;0.40;;;13.10;96.10;;;;;;5012356;28;20467;-68
2022/09/17 11:32:05;;;;;;;0.47;0.47;;;13.40;95.00;;;;;;5013574;28;20488;-70
2022/09/17 11:34:57;;;;;;;0.40;0.40;;;13.90;96.00;;;;;;5013767;28;20482;-70
2022/09/17 11:37:30;;;;;;;0.33;0.33;;;14.40;96.30;;;;;;5013855;28;20774;-70
2022/09/17 11:39:58;;;;;;;0.70;0.40;;;15.00;95.30;;;;;;5013449;28;20426;-69
2022/09/17 11:42:37;;;;;;;0.33;0.33;;;15.60;95.90;;;;;;5013706;28;20484;-69
2022/09/17 11:45:29;;;;;;;0.50;0.50;;;15.90;93.20;;;;;;5013767;28;20901;-69
2022/09/17 11:48:16;;;;;;;0.40;0.40;;;16.00;93.40;;;;;;5005058;28;20421;-69
2022/09/17 11:51:18;;;;;;;0.30;0.30;;;15.30;89.10;;;;;;5013453;28;20402;-69
2022/09/17 11:53:50;;;;;;;0.30;0.30;;;14.90;91.70;;;;;;4947477;28;20404;-69
2022/09/17 11:56:18;;;;;;;0.50;0.50;;;14.70;93.30;;;;;;5013290;28;20450;-69
2022/09/17 11:59:09;;;;;;;0.60;0.40;;;14.70;93.30;;;;;;5013510;28;20915;-69
2022/09/17 12:01:48;;;;;;;0.50;0.50;;;14.40;93.20;;;;;;5013362;28;20537;-68
2022/09/17 12:05:10;;;;;;;0.40;0.40;;;14.10;94.90;;;;;;5013582;28;20915;-69
2022/09/17 12:07:44;;;;;;;0.30;0.30;;;14.10;99.90;;;;;;4934077;29;20469;-69
2022/09/17 12:10:47;;;;;;;0.50;0.50;;;14.00;95.70;;;;;;4933712;29;20539;-70
2022/09/17 12:13:12;;;;;;;0.40;0.40;;;14.10;94.70;;;;;;4997182;28;20800;-70
2022/09/17 12:15:42;;;;;;;0.30;0.30;;;14.00;94.40;;;;;;5016938;28;20461;-68
2022/09/17 12:18:41;;;;;;;0.37;0.37;;;13.70;99.90;;;;;;5017284;28;20199;-69
2022/09/17 12:21:12;;;;;;;0.37;0.37;;;13.70;95.40;;;;;;5013641;28;20394;-70
2022/09/17 12:23:54;;;;;;;0.40;0.40;;;13.20;99.90;;;;;;5015281;28;20402;-69
2022/09/17 12:26:20;;;;;;;0.40;0.40;;;;;;;;;;5014196;28;20417;-69
2022/09/17 12:29:10;;;;;;;0.80;0.80;;;13.10;99.90;;;;;;5013880;28;20466;-71
2022/09/17 12:32:11;;;;;;;0.40;0.40;;;13.50;99.90;;;;;;5015351;28;20497;-70
2022/09/17 12:34:57;;;;;;;0.30;0.30;;;13.40;95.60;;;;;;4995335;28;20418;-71
2022/09/17 12:37:34;;;;;;;0.40;0.40;;;13.90;99.90;;;;;;5014909;28;20921;-69
2022/09/17 12:40:28;;;;;;;0.40;0.40;;;13.10;99.90;;;;;;5013996;28;20499;-70
2022/09/17 12:43:15;;;;;;;0.50;0.50;;;13.70;94.90;;;;;;5015157;28;20493;-70
2022/09/17 12:46:04;;;;;;;0.40;0.40;;;13.70;94.60;;;;;;5015884;28;20406;-69
2022/09/17 12:48:43;;;;;;;0.60;0.60;;;14.30;99.90;;;;;;5013884;28;20763;-69
2022/09/17 12:51:47;;;;;;;0.83;0.70;;;14.10;95.70;;;;;;5016532;28;20470;-69
2022/09/17 12:54:34;;;;;;;0.40;0.40;;;13.90;99.90;;;;;;5012020;28;20773;-70
2022/09/17 12:57:05;;;;;;;0.83;0.83;;;14.10;94.00;;;;;;5015592;28;20891;-70
2022/09/17 12:59:35;;;;;;;0.60;0.60;;;14.20;99.30;;;;;;5016006;28;20448;-69
2022/09/17 13:02:23;;;;;;;0.50;0.40;;;13.50;99.90;;;;;;5014298;28;20418;-68
2022/09/17 13:04:58;;;;;;;0.40;0.40;;;13.60;93.60;;;;;;5015109;28;20440;-69
2022/09/17 13:07:35;;;;;;;0.87;0.87;;;13.00;94.10;;;;;;5013738;28;20903;-69
2022/09/17 13:10:39;;;;;;;1.37;0.83;;;12.70;95.60;;;;;;5014189;28;20437;-71
2022/09/17 13:13:16;;;;;;;1.03;0.70;;;12.80;96.30;;;;;;5016682;28;20403;-70
2022/09/17 13:15:59;;;;;;;0.50;0.50;;;12.70;95.10;;;;;;5015918;28;20466;-69
2022/09/17 13:18:43;;;;;;;0.70;0.70;;;12.60;95.70;;;;;;5016197;28;20425;-69
2022/09/17 13:21:26;;;;;;;0.30;0.30;;;12.30;96.10;;;;;;5015875;28;20480;-69
2022/09/17 13:23:54;;;;;;;0.33;0.33;;;12.10;96.90;;;;;;5015559;28;20398;-69
2022/09/17 13:26:31;;;;;;;0.43;0.40;;;11.90;99.90;;;;;;5013758;28;20416;-69
2022/09/17 13:28:57;;;;;;;0.50;0.50;;;12.00;97.50;;;;;;5014709;28;20469;-70
2022/09/17 13:31:37;;;;;;;0.43;0.40;;;12.00;97.90;;;;;;5014818;28;20452;-70
2022/09/17 13:34:16;;;;;;;0.50;0.50;;;12.10;98.50;;;;;;5015837;28;20175;-69